Data for 04/27/2005

Time Sea-Level Adjusted Pressure Absolute Pressure Temperature Relative Humidity Dew Point   
(mb) (inHg) (mb) (inHg) (C) (F) (%) (C) (F)
00:05 1017 30.03 846 24.98 5.9 42.7 58 -1.8 28.8
00:10 1017 30.03 846 24.98 5.7 42.3 59 -1.7 28.9
00:15 1017 30.03 846 24.98 5.6 42.1 59 -1.7 28.9
00:20 1017 30.03 846 24.98 5.5 42 60 -1.7 28.9
00:25 1017 30.03 846 24.98 5.5 41.9 61 -1.5 29.3
00:30 1017 30.03 846 24.98 5.5 41.9 61 -1.3 29.6
00:35 1017 30.03 846 24.98 5.4 41.7 61 -1.5 29.4
00:40 1017 30.03 846 24.98 5.4 41.6 63 -1.1 29.9
00:45 1017 30.03 847 25.01 5.2 41.4 63 -1.1 29.9
00:50 1017 30.03 847 25.01 5.2 41.3 64 -1 30.2
00:55 1018 30.06 847 25.01 5.2 41.3 65 -0.8 30.5
01:00 1018 30.06 847 25.01 5.1 41.2 66 -0.7 30.7
01:05 1018 30.06 847 25.01 5 41.1 70 -0 32
01:10 1018 30.06 847 25.01 4.6 40.4 76 0.7 33.3
01:15 1018 30.06 847 25.01 4.2 39.6 79 1 33.8
01:20 1018 30.06 848 25.04 4.1 39.4 80 1 33.8
01:25 1018 30.06 848 25.04 3.8 38.9 84 1.4 34.5
01:30 1018 30.06 848 25.04 3.6 38.5 87 1.6 35
01:35 1018 30.06 848 25.04 3.3 37.9 88 1.5 34.8
01:40 1018 30.06 847 25.01 2.8 37 90 1.3 34.4
01:45 1018 30.06 847 25.01 2.4 36.3 91 1.1 34
01:50 1018 30.06 847 25.01 2.1 35.8 93 1.1 34
01:55 1018 30.06 847 25.01 1.9 35.4 95 1.1 34
02:00 1018 30.06 847 25.01 1.8 35.2 96 1.1 34
02:05 1018 30.06 848 25.04 1.5 34.7 95 0.7 33.3
02:10 1018 30.06 848 25.04 1.4 34.5 96 0.8 33.5
02:15 1019 30.09 848 25.04 1.3 34.3 97 0.9 33.6
02:20 1019 30.09 848 25.04 1.6 34.8 96 1 33.8
02:25 1019 30.09 848 25.04 1.7 35.1 94 0.8 33.5
02:30 1019 30.09 848 25.04 1.6 34.9 94 0.8 33.5
02:35 1019 30.09 848 25.04 1.2 34.1 96 0.6 33.1
02:40 1019 30.09 848 25.04 0.7 33.3 98 0.4 32.7
02:45 1019 30.09 848 25.04 0.6 33.1 99 0.4 32.7
02:50 1019 30.09 848 25.04 0.5 33 99 0.4 32.8
02:55 1018 30.06 848 25.04 0.6 33.1 99 0.5 32.9
03:00 1019 30.09 848 25.04 0.6 33 99 0.4 32.8
03:05 1019 30.09 848 25.04 0.6 33 99 0.4 32.8
03:10 1019 30.09 848 25.04 0.4 32.8 99 0.3 32.6
03:15 1019 30.09 848 25.04 0.4 32.7 99 0.3 32.6
03:20 1019 30.09 848 25.04 0.3 32.6 100 0.3 32.5
03:25 1019 30.09 848 25.04 0.4 32.7 100 0.3 32.6
03:30 1019 30.09 848 25.04 0.3 32.6 100 0.3 32.6
03:35 1019 30.09 848 25.04 0.3 32.6 100 0.3 32.6
03:40 1019 30.09 848 25.04 0.3 32.6 100 0.3 32.6
03:45 1019 30.09 848 25.04 0.4 32.7 100 0.4 32.7
03:50 1019 30.09 848 25.04 0.4 32.7 100 0.4 32.7
03:55 1019 30.09 848 25.04 0.4 32.8 100 0.4 32.8
04:00 1019 30.09 848 25.04 0.5 32.9 100 0.5 32.9
04:05 1019 30.09 848 25.04 0.6 33.1 100 0.6 33
04:10 1019 30.09 848 25.04 0.6 33 100 0.5 32.9
04:15 1019 30.09 848 25.04 0.4 32.7 100 0.4 32.7
04:20 1019 30.09 848 25.04 0.4 32.8 100 0.4 32.8
04:25 1019 30.09 848 25.04 0.5 32.9 100 0.5 32.9
04:30 1019 30.09 848 25.04 0.6 33.1 100 0.6 33.1
04:35 1019 30.09 848 25.04 0.6 33.1 100 0.6 33.1
04:40 1019 30.09 848 25.04 0.7 33.3 100 0.7 33.2
04:45 1019 30.09 848 25.04 0.8 33.4 100 0.8 33.4
04:50 1019 30.09 848 25.04 0.9 33.6 100 0.9 33.6
04:55 1019 30.09 848 25.04 1 33.9 100 1 33.7
05:00 1019 30.09 848 25.04 1.2 34.1 99 1.1 34
05:05 1019 30.09 848 25.04 1.4 34.5 99 1.2 34.1
05:10 1019 30.09 848 25.04 1.3 34.4 98 1 33.9
05:15 1019 30.09 848 25.04 1.3 34.3 98 0.9 33.7
05:20 1019 30.09 848 25.04 1.2 34.1 98 0.9 33.6
05:25 1019 30.09 848 25.04 1.1 34 98 0.8 33.4
05:30 1019 30.09 848 25.04 0.9 33.6 98 0.6 33.1
05:35 1019 30.09 848 25.04 0.8 33.5 98 0.6 33.1
05:40 1018 30.06 848 25.04 0.8 33.4 99 0.6 33.1
05:45 1018 30.06 848 25.04 0.8 33.4 99 0.6 33
05:50 1018 30.06 848 25.04 0.7 33.3 99 0.5 32.9
05:55 1018 30.06 848 25.04 0.7 33.2 98 0.4 32.7
06:00 1018 30.06 848 25.04 0.6 33.1 98 0.3 32.6
06:05 1018 30.06 848 25.04 0.6 33 98 0.3 32.6
06:10 1018 30.06 848 25.04 0.4 32.7 99 0.2 32.4
06:15 1018 30.06 848 25.04 0.2 32.3 100 0.1 32.2
06:20 1018 30.06 848 25.04 0.1 32.2 100 0.1 32.2
06:25 1018 30.06 848 25.04 0.2 32.3 100 0.1 32.2
06:30 1018 30.06 848 25.04 0.1 32.1 100 0 32.1
06:35 1019 30.09 848 25.04 0.2 32.4 100 0.2 32.3
06:40 1019 30.09 848 25.04 0.3 32.5 100 0.2 32.4
06:45 1019 30.09 848 25.04 0.3 32.6 100 0.2 32.4
06:50 1019 30.09 848 25.04 0.3 32.5 98 -0 32
06:55 1019 30.09 848 25.04 0.1 32.2 99 -0 32
07:00 1019 30.09 848 25.04 0.1 32.2 99 0 32
07:05 1019 30.09 848 25.04 0.2 32.3 99 0.1 32.1
07:10 1019 30.09 848 25.04 0.1 32.2 100 0.1 32.2
07:15 1019 30.09 848 25.04 0.1 32.2 100 0.1 32.2
07:20 1019 30.09 848 25.04 0.1 32.2 100 0.1 32.1
07:25 1019 30.09 848 25.04 0 32.1 100 0 32
07:30 1019 30.09 848 25.04 -0 32 100 -0.1 31.9
07:35 1019 30.09 848 25.04 -0.1 31.8 99 -0.2 31.6
07:40 1019 30.09 848 25.04 -0.2 31.6 99 -0.3 31.4
07:45 1019 30.09 848 25.04 -0.3 31.5 99 -0.4 31.3
07:50 1019 30.09 848 25.04 -0.3 31.5 99 -0.4 31.2
07:55 1019 30.09 849 25.07 -0.3 31.5 99 -0.5 31.2
08:00 1020 30.12 849 25.07 -0.4 31.3 98 -0.7 30.7
08:05 1019 30.09 849 25.07 -0.8 30.6 99 -1 30.3
08:10 1019 30.09 849 25.07 -1.1 30 99 -1.3 29.7
08:15 1019 30.09 849 25.07 -1.2 29.9 99 -1.3 29.6
08:20 1019 30.09 849 25.07 -1.4 29.5 99 -1.6 29.1
08:25 1019 30.09 849 25.07 -1.7 29 99 -1.8 28.7
08:30 1019 30.09 849 25.07 -1.8 28.7 98 -2.1 28.3
08:35 1019 30.09 849 25.07 -2 28.4 97 -2.4 27.7
08:40 1019 30.09 849 25.07 -2.2 28.1 97 -2.5 27.4
08:45 1019 30.09 849 25.07 -2.2 28 98 -2.5 27.5
08:50 1019 30.09 848 25.04 -2 28.4 98 -2.3 27.8
08:55 1019 30.09 848 25.04 -1.9 28.6 96 -2.5 27.5
09:00 1019 30.09 848 25.04 -1.8 28.7 95 -2.5 27.4
09:05 1019 30.09 848 25.04 -2 28.5 93 -3 26.6
09:10 1019 30.09 848 25.04 -2.1 28.3 93 -3 26.6
09:15 1019 30.09 848 25.04 -2.1 28.3 93 -3 26.6
09:20 1019 30.09 848 25.04 -2.1 28.1 95 -2.8 27
09:25 1019 30.09 848 25.04 -2.2 28 94 -3.1 26.4
09:30 1019 30.09 848 25.04 -2.2 28 95 -2.9 26.8
09:35 1019 30.09 848 25.04 -2.1 28.1 95 -2.8 27
09:40 1019 30.09 848 25.04 -2.1 28.2 95 -2.7 27.1
09:45 1019 30.09 848 25.04 -2.2 28.1 95 -2.8 26.9
09:50 1019 30.09 848 25.04 -2 28.5 98 -2.3 27.9
09:55 1019 30.09 848 25.04 -1.7 28.9 96 -2.3 27.9
10:00 1019 30.09 848 25.04 -1.7 28.9 95 -2.4 27.7
10:05 1019 30.09 848 25.04 -1.8 28.7 94 -2.6 27.3
10:10 1019 30.09 848 25.04 -1.9 28.6 95 -2.7 27.2
10:15 1019 30.09 848 25.04 -1.9 28.6 95 -2.6 27.3
10:20 1019 30.09 848 25.04 -2 28.4 96 -2.6 27.3
10:25 1019 30.09 849 25.07 -2 28.3 95 -2.7 27.1
10:30 1019 30.09 849 25.07 -2.2 28 97 -2.7 27.2
10:35 1019 30.09 849 25.07 -2.1 28.2 95 -2.8 27
10:40 1019 30.09 849 25.07 -2 28.3 97 -2.5 27.5
10:45 1019 30.09 849 25.07 -1.8 28.8 95 -2.5 27.5
10:50 1019 30.09 849 25.07 -1.9 28.5 97 -2.4 27.7
10:55 1019 30.09 849 25.07 -1.8 28.7 97 -2.2 28
11:00 1020 30.12 849 25.07 -1.7 29 96 -2.2 28
11:05 1020 30.12 849 25.07 -1.7 28.9 96 -2.3 27.9
11:10 1020 30.12 849 25.07 -1.4 29.5 95 -2.1 28.3
11:15 1020 30.12 849 25.07 -1.2 29.9 93 -2.1 28.1
11:20 1020 30.12 849 25.07 -0.9 30.4 93 -1.8 28.7
11:25 1020 30.12 849 25.07 -0.5 31.2 89 -2.1 28.3
11:30 1020 30.12 849 25.07 -0.4 31.3 88 -2.1 28.2
11:35 1020 30.12 849 25.07 -0.7 30.8 90 -2.1 28.3
11:40 1020 30.12 849 25.07 -1 30.3 90 -2.5 27.6
11:45 1020 30.12 849 25.07 -0.9 30.3 86 -2.9 26.7
11:50 1020 30.12 849 25.07 -1.5 29.2 91 -2.8 26.9
11:55 1020 30.12 849 25.07 -1.3 29.6 90 -2.8 27
12:00 1019 30.09 849 25.07 -1.4 29.4 90 -2.9 26.8
12:05 1020 30.12 849 25.07 -1.5 29.4 89 -3.1 26.5
12:10 1019 30.09 849 25.07 -1.5 29.2 89 -3.2 26.3
12:15 1019 30.09 849 25.07 -1.8 28.7 89 -3.4 25.9
12:20 1019 30.09 849 25.07 -1.6 29.2 87 -3.5 25.7
12:25 1019 30.09 849 25.07 -1.2 29.8 85 -3.5 25.8
12:30 1019 30.09 848 25.04 -0.8 30.5 84 -3.2 26.2
12:35 1019 30.09 848 25.04 -1 30.3 89 -2.6 27.3
12:40 1019 30.09 848 25.04 -0.9 30.4 86 -2.9 26.8
12:45 1019 30.09 848 25.04 -1 30.3 86 -3.1 26.5
12:50 1019 30.09 848 25.04 -1 30.2 85 -3.2 26.2
12:55 1019 30.09 848 25.04 -0.7 30.7 85 -2.9 26.8
13:00 1019 30.09 848 25.04 -0.9 30.3 85 -3.1 26.5
13:05 1019 30.09 848 25.04 -1.3 29.6 88 -3.1 26.4
13:10 1019 30.09 848 25.04 -1.1 30 87 -3 26.6
13:15 1019 30.09 848 25.04 -1.4 29.5 87 -3.3 26.1
13:20 1019 30.09 848 25.04 -0.6 30.8 86 -2.7 27.2
13:25 1019 30.09 848 25.04 -0.7 30.7 87 -2.6 27.2
13:30 1018 30.06 848 25.04 -1.3 29.7 86 -3.4 25.9
13:35 1018 30.06 848 25.04 -1.4 29.5 88 -3.2 26.2
13:40 1018 30.06 848 25.04 -1.1 30 87 -3 26.6
13:45 1018 30.06 847 25.01 -0.5 31.1 79 -3.8 25.2
13:50 1018 30.06 847 25.01 -0.3 31.4 80 -3.3 26
13:55 1018 30.06 847 25.01 -0.3 31.4 83 -2.9 26.9
14:00 1018 30.06 847 25.01 0.4 32.6 81 -2.5 27.6
14:05 1018 30.06 847 25.01 1 33.8 76 -2.8 26.9
14:10 1018 30.06 847 25.01 1 33.7 77 -2.6 27.3
14:15 1018 30.06 847 25.01 1.1 34 77 -2.5 27.6
14:20 1018 30.06 847 25.01 1.7 35.1 73 -2.6 27.3
14:25 1018 30.06 847 25.01 0.8 33.4 78 -2.6 27.3
14:30 1018 30.06 847 25.01 0.3 32.6 77 -3.2 26.2
14:35 1018 30.06 847 25.01 0.5 32.8 74 -3.6 25.5
14:40 1018 30.06 847 25.01 0.9 33.5 72 -3.6 25.6
14:45 1018 30.06 847 25.01 0.7 33.2 74 -3.5 25.7
14:50 1018 30.06 847 25.01 0.9 33.7 74 -3.3 26.1
14:55 1018 30.06 847 25.01 0.4 32.7 76 -3.3 26
15:00 1018 30.06 847 25.01 0.6 33 70 -4.2 24.4
15:05 1018 30.06 847 25.01 0.5 32.9 73 -3.8 25.2
15:10 1018 30.06 847 25.01 0.9 33.6 71 -3.8 25.1
15:15 1018 30.06 847 25.01 1.4 34.5 68 -3.8 25.1
15:20 1018 30.06 847 25.01 1.5 34.8 66 -4 24.7
15:25 1018 30.06 847 25.01 1 33.8 66 -4.6 23.8
15:30 1017 30.03 847 25.01 1.1 34 67 -4.4 24.1
15:35 1017 30.03 847 25.01 1.6 34.9 65 -4.3 24.3
15:40 1017 30.03 846 24.98 2.9 37.3 60 -4.1 24.7
15:45 1017 30.03 847 25.01 2.6 36.6 64 -3.6 25.5
15:50 1017 30.03 846 24.98 2.2 35.9 64 -4 24.8
15:55 1017 30.03 846 24.98 2.8 37.1 61 -4 24.7
16:00 1017 30.03 846 24.98 1.9 35.5 66 -3.7 25.3
16:05 1017 30.03 846 24.98 2.1 35.8 65 -3.7 25.3
16:10 1017 30.03 846 24.98 1.8 35.2 66 -4 24.9
16:15 1017 30.03 846 24.98 2.2 35.9 62 -4.4 24
16:20 1017 30.03 846 24.98 1.6 34.8 67 -4 24.8
16:25 1017 30.03 846 24.98 1.7 35.1 63 -4.6 23.8
16:30 1017 30.03 846 24.98 2 35.7 69 -3.1 26.4
16:35 1017 30.03 846 24.98 1.2 34.2 74 -3 26.7
16:40 1017 30.03 846 24.98 2 35.6 68 -3.3 26.1
16:45 1017 30.03 846 24.98 3 37.3 61 -3.7 25.3
16:50 1017 30.03 846 24.98 2.7 36.8 68 -2.7 27.2
16:55 1017 30.03 846 24.98 1.6 34.8 72 -2.9 26.7
17:00 1017 30.03 846 24.98 1.1 34 73 -3.2 26.2
17:05 1017 30.03 846 24.98 1.2 34.2 70 -3.6 25.5
17:10 1017 30.03 846 24.98 0.8 33.4 76 -3 26.6
17:15 1017 30.03 846 24.98 -0.1 31.9 89 -1.7 28.9
17:20 1017 30.03 846 24.98 -0.7 30.7 92 -2 28.5
17:25 1017 30.03 846 24.98 -1 30.2 93 -2 28.4
17:30 1017 30.03 846 24.98 -1.2 29.8 93 -2.2 28
17:35 1017 30.03 846 24.98 -1.1 30.1 94 -1.9 28.6
17:40 1017 30.03 846 24.98 -0.9 30.3 90 -2.3 27.8
17:45 1017 30.03 846 24.98 -0.7 30.8 87 -2.5 27.5
17:50 1017 30.03 846 24.98 -0.4 31.3 84 -2.7 27.1
17:55 1017 30.03 846 24.98 -0.2 31.7 87 -2.1 28.3
18:00 1017 30.03 846 24.98 -0.2 31.7 84 -2.6 27.3
18:05 1017 30.03 846 24.98 -0.4 31.3 88 -2.1 28.3
18:10 1017 30.03 846 24.98 -0.2 31.6 85 -2.4 27.6
18:15 1017 30.03 846 24.98 -0.1 31.8 85 -2.3 27.9
18:20 1017 30.03 846 24.98 -0.1 31.9 85 -2.3 27.8
18:25 1017 30.03 846 24.98 -0.3 31.5 87 -2.1 28.2
18:30 1017 30.03 846 24.98 -0.3 31.4 86 -2.4 27.7
18:35 1017 30.03 846 24.98 -0.4 31.2 85 -2.6 27.3
18:40 1017 30.03 846 24.98 -0.5 31.1 89 -2.1 28.2
18:45 1017 30.03 846 24.98 -0.4 31.3 89 -2.1 28.3
18:50 1017 30.03 846 24.98 -1 30.2 88 -2.7 27.1
18:55 1017 30.03 846 24.98 -1.3 29.7 89 -2.9 26.7
19:00 1017 30.03 846 24.98 -1.5 29.4 90 -3 26.6
19:05 1017 30.03 846 24.98 -1.7 28.9 92 -2.9 26.7
19:10 1017 30.03 846 24.98 -1.8 28.8 90 -3.3 26.1
19:15 1017 30.03 846 24.98 -1.8 28.8 89 -3.4 25.9
19:20 1017 30.03 846 24.98 -1.9 28.7 88 -3.6 25.5
19:25 1017 30.03 846 24.98 -2 28.3 88 -3.7 25.3
19:30 1017 30.03 846 24.98 -2 28.4 89 -3.6 25.5
19:35 1017 30.03 846 24.98 -2.1 28.3 86 -4.2 24.5
19:40 1017 30.03 846 24.98 -2.2 28.1 85 -4.3 24.2
19:45 1017 30.03 846 24.98 -2.2 28.1 85 -4.4 24.1
19:50 1017 30.03 846 24.98 -2.2 28.1 81 -5 23.1
19:55 1017 30.03 846 24.98 -2.2 28 83 -4.8 23.4
20:00 1017 30.03 846 24.98 -2.2 28 83 -4.8 23.4
20:05 1017 30.03 846 24.98 -2.4 27.7 84 -4.7 23.5
20:10 1017 30.03 846 24.98 -2.4 27.6 83 -4.9 23.1
20:15 1017 30.03 846 24.98 -2.5 27.6 84 -4.8 23.3
20:20 1017 30.03 846 24.98 -2.5 27.5 83 -5.1 22.8
20:25 1017 30.03 846 24.98 -2.6 27.3 84 -5 23
20:30 1017 30.03 846 24.98 -2.7 27.2 82 -5.3 22.4
20:35 1017 30.03 846 24.98 -2.8 26.9 83 -5.3 22.4
20:40 1017 30.03 846 24.98 -2.9 26.7 81 -5.7 21.7
20:45 1017 30.03 846 24.98 -3.1 26.4 82 -5.8 21.6
20:50 1017 30.03 846 24.98 -3.2 26.3 82 -5.9 21.4
20:55 1017 30.03 846 24.98 -3.3 26.1 81 -6.1 20.9
21:00 1017 30.03 846 24.98 -3.4 25.9 81 -6.2 20.8
21:05 1017 30.03 846 24.98 -3.5 25.7 83 -6 21.1
21:10 1017 30.03 846 24.98 -3.5 25.7 82 -6.1 21
21:15 1017 30.03 847 25.01 -3.6 25.6 80 -6.5 20.4
21:20 1017 30.03 847 25.01 -3.5 25.6 81 -6.4 20.5
21:25 1017 30.03 847 25.01 -3.6 25.6 82 -6.2 20.8
21:30 1017 30.03 847 25.01 -3.6 25.5 82 -6.2 20.8
21:35 1017 30.03 847 25.01 -3.7 25.4 82 -6.3 20.6
21:40 1017 30.03 847 25.01 -3.8 25.2 81 -6.6 20.1
21:45 1017 30.03 847 25.01 -3.8 25.1 81 -6.5 20.2
21:50 1018 30.06 847 25.01 -3.9 25 81 -6.6 20.1
21:55 1018 30.06 847 25.01 -3.9 24.9 82 -6.5 20.2
22:00 1017 30.03 847 25.01 -4 24.8 82 -6.6 20.1
22:05 1018 30.06 847 25.01 -4 24.8 81 -6.8 19.7
22:10 1018 30.06 847 25.01 -4.1 24.7 82 -6.7 20
22:15 1018 30.06 847 25.01 -4.1 24.6 81 -6.9 19.6
22:20 1017 30.03 847 25.01 -4.1 24.5 80 -7.1 19.2
22:25 1018 30.06 847 25.01 -4.2 24.4 81 -7 19.4
22:30 1018 30.06 847 25.01 -4.2 24.4 81 -7 19.3
22:35 1018 30.06 847 25.01 -4.3 24.2 82 -7 19.4
22:40 1018 30.06 847 25.01 -4.4 24.1 81 -7.1 19.2
22:45 1018 30.06 847 25.01 -4.4 24.1 81 -7.1 19.2
22:50 1018 30.06 847 25.01 -4.3 24.2 82 -7 19.4
22:55 1018 30.06 847 25.01 -4.4 24.1 82 -7 19.4
23:00 1018 30.06 847 25.01 -4.4 24 80 -7.4 18.6
23:05 1018 30.06 847 25.01 -4.5 23.9 79 -7.5 18.4
23:10 1018 30.06 847 25.01 -4.6 23.8 78 -7.9 17.8
23:15 1018 30.06 847 25.01 -4.6 23.7 79 -7.7 18.1
23:20 1018 30.06 847 25.01 -4.6 23.7 78 -7.8 17.9
23:25 1018 30.06 847 25.01 -4.6 23.6 80 -7.6 18.3
23:30 1018 30.06 847 25.01 -4.7 23.5 81 -7.5 18.5
23:35 1018 30.06 847 25.01 -4.7 23.5 81 -7.5 18.5
23:40 1018 30.06 847 25.01 -4.8 23.4 80 -7.7 18.1
23:45 1018 30.06 847 25.01 -4.8 23.3 80 -7.7 18.1
23:50 1018 30.06 847 25.01 -4.8 23.3 82 -7.4 18.7
23:55 1018 30.06 847 25.01 -4.8 23.4 81 -7.6 18.3
24:00 1018 30.06 847 25.01 -4.8 23.3 81 -7.6 18.4